sensor_id;sensor_type;location;lat;lon;timestamp;pressure;altitude;pressure_sealevel;temperature;humidity
40384;BME280;26097;42.366;23.818;2023-02-13T00:00:36;95710.19;;;-2.00;100.00
40384;BME280;26097;42.366;23.818;2023-02-13T00:03:36;95708.50;;;-1.92;100.00
40384;BME280;26097;42.366;23.818;2023-02-13T00:06:37;95714.41;;;-1.73;100.00
40384;BME280;26097;42.366;23.818;2023-02-13T00:09:38;95715.28;;;-1.66;100.00
40384;BME280;26097;42.366;23.818;2023-02-13T00:12:39;95712.69;;;-1.58;100.00
40384;BME280;26097;42.366;23.818;2023-02-13T00:15:40;95714.38;;;-1.46;100.00
40384;BME280;26097;42.366;23.818;2023-02-13T00:18:40;95711.81;;;-1.37;100.00
40384;BME280;26097;42.366;23.818;2023-02-13T00:21:40;95711.75;;;-1.32;100.00
40384;BME280;26097;42.366;23.818;2023-02-13T00:24:41;95710.06;;;-1.32;100.00
40384;BME280;26097;42.366;23.818;2023-02-13T00:27:42;95713.47;;;-1.26;100.00
40384;BME280;26097;42.366;23.818;2023-02-13T00:30:42;95706.59;;;-1.21;100.00
40384;BME280;26097;42.366;23.818;2023-02-13T00:33:43;95710.88;;;-1.22;100.00
40384;BME280;26097;42.366;23.818;2023-02-13T00:36:43;95711.72;;;-1.21;100.00
40384;BME280;26097;42.366;23.818;2023-02-13T00:39:44;95707.44;;;-1.15;100.00
40384;BME280;26097;42.366;23.818;2023-02-13T00:42:44;95713.44;;;-1.14;100.00
40384;BME280;26097;42.366;23.818;2023-02-13T00:45:44;95709.13;;;-1.09;100.00
40384;BME280;26097;42.366;23.818;2023-02-13T00:48:45;95719.34;;;-1.10;100.00
40384;BME280;26097;42.366;23.818;2023-02-13T00:51:45;95715.09;;;-1.10;100.00
40384;BME280;26097;42.366;23.818;2023-02-13T00:54:46;95715.09;;;-1.11;100.00
40384;BME280;26097;42.366;23.818;2023-02-13T00:57:46;95716.81;;;-1.12;100.00
40384;BME280;26097;42.366;23.818;2023-02-13T01:00:47;95725.34;;;-1.13;100.00
40384;BME280;26097;42.366;23.818;2023-02-13T01:03:47;95726.19;;;-1.12;100.00
40384;BME280;26097;42.366;23.818;2023-02-13T01:06:48;95726.19;;;-1.12;100.00
40384;BME280;26097;42.366;23.818;2023-02-13T01:09:48;95730.50;;;-1.16;100.00
40384;BME280;26097;42.366;23.818;2023-02-13T01:12:48;95725.38;;;-1.16;100.00
40384;BME280;26097;42.366;23.818;2023-02-13T01:15:49;95721.97;;;-1.15;100.00
40384;BME280;26097;42.366;23.818;2023-02-13T01:18:49;95718.53;;;-1.20;100.00
40384;BME280;26097;42.366;23.818;2023-02-13T01:21:49;95727.09;;;-1.23;100.00
40384;BME280;26097;42.366;23.818;2023-02-13T01:24:50;95723.69;;;-1.23;100.00
40384;BME280;26097;42.366;23.818;2023-02-13T01:27:50;95725.41;;;-1.28;100.00
40384;BME280;26097;42.366;23.818;2023-02-13T01:30:55;95722.00;;;-1.32;100.00
40384;BME280;26097;42.366;23.818;2023-02-13T01:33:57;95725.44;;;-1.35;100.00
40384;BME280;26097;42.366;23.818;2023-02-13T01:36:57;95735.66;;;-1.38;100.00
40384;BME280;26097;42.366;23.818;2023-02-13T01:39:58;95739.94;;;-1.46;100.00
40384;BME280;26097;42.366;23.818;2023-02-13T01:42:58;95732.28;;;-1.49;100.00
40384;BME280;26097;42.366;23.818;2023-02-13T01:46:00;95740.81;;;-1.53;100.00
40384;BME280;26097;42.366;23.818;2023-02-13T01:49:22;95733.19;;;-1.64;100.00
40384;BME280;26097;42.366;23.818;2023-02-13T01:52:24;95745.09;;;-1.73;100.00
40384;BME280;26097;42.366;23.818;2023-02-13T01:55:26;95741.69;;;-1.72;100.00
40384;BME280;26097;42.366;23.818;2023-02-13T01:58:31;95744.28;;;-1.73;100.00
40384;BME280;26097;42.366;23.818;2023-02-13T02:01:33;95740.84;;;-1.84;100.00
40384;BME280;26097;42.366;23.818;2023-02-13T02:04:37;95745.97;;;-1.91;100.00
40384;BME280;26097;42.366;23.818;2023-02-13T02:07:40;95752.81;;;-1.93;100.00
40384;BME280;26097;42.366;23.818;2023-02-13T02:10:40;95751.94;;;-1.93;100.00
40384;BME280;26097;42.366;23.818;2023-02-13T02:13:41;95756.22;;;-1.94;100.00
40384;BME280;26097;42.366;23.818;2023-02-13T02:16:42;95758.75;;;-1.97;100.00
40384;BME280;26097;42.366;23.818;2023-02-13T02:20:02;95770.69;;;-2.04;100.00
40384;BME280;26097;42.366;23.818;2023-02-13T02:30:16;95775.78;;;-2.13;100.00
40384;BME280;26097;42.366;23.818;2023-02-13T02:33:31;95781.72;;;-2.25;100.00
40384;BME280;26097;42.366;23.818;2023-02-13T02:44:05;95780.88;;;-2.30;100.00
40384;BME280;26097;42.366;23.818;2023-02-13T02:47:19;95780.03;;;-2.35;100.00
40384;BME280;26097;42.366;23.818;2023-02-13T02:57:06;95781.72;;;-2.31;100.00
40384;BME280;26097;42.366;23.818;2023-02-13T03:00:09;95777.44;;;-2.38;100.00
40384;BME280;26097;42.366;23.818;2023-02-13T03:03:28;95771.47;;;-2.40;100.00
40384;BME280;26097;42.366;23.818;2023-02-13T03:06:52;95780.81;;;-2.50;100.00
40384;BME280;26097;42.366;23.818;2023-02-13T03:10:00;95788.44;;;-2.69;100.00
40384;BME280;26097;42.366;23.818;2023-02-13T03:13:43;95791.84;;;-2.68;100.00
40384;BME280;26097;42.366;23.818;2023-02-13T03:16:47;95786.75;;;-2.68;100.00
40384;BME280;26097;42.366;23.818;2023-02-13T03:20:13;95778.25;;;-2.67;100.00
40384;BME280;26097;42.366;23.818;2023-02-13T03:24:20;95781.63;;;-2.75;100.00
40384;BME280;26097;42.366;23.818;2023-02-13T03:37:00;95785.03;;;-2.66;100.00
40384;BME280;26097;42.366;23.818;2023-02-13T03:40:26;95785.91;;;-2.61;100.00
40384;BME280;26097;42.366;23.818;2023-02-13T03:43:32;95783.34;;;-2.64;100.00
40384;BME280;26097;42.366;23.818;2023-02-13T03:46:39;95787.59;;;-2.60;100.00
40384;BME280;26097;42.366;23.818;2023-02-13T03:49:46;95791.84;;;-2.62;100.00
40384;BME280;26097;42.366;23.818;2023-02-13T03:53:09;95798.66;;;-2.61;100.00
40384;BME280;26097;42.366;23.818;2023-02-13T03:56:12;95792.66;;;-2.77;100.00
40384;BME280;26097;42.366;23.818;2023-02-13T03:59:34;95791.78;;;-2.87;100.00
40384;BME280;26097;42.366;23.818;2023-02-13T04:02:39;95792.53;;;-3.07;100.00
40384;BME280;26097;42.366;23.818;2023-02-13T04:05:46;95787.38;;;-3.16;100.00
40384;BME280;26097;42.366;23.818;2023-02-13T04:08:48;95798.38;;;-3.33;100.00
40384;BME280;26097;42.366;23.818;2023-02-13T04:11:55;95800.03;;;-3.38;100.00
40384;BME280;26097;42.366;23.818;2023-02-13T04:15:03;95802.59;;;-3.33;100.00
40384;BME280;26097;42.366;23.818;2023-02-13T04:18:26;95805.13;;;-3.35;100.00
40384;BME280;26097;42.366;23.818;2023-02-13T04:21:34;95805.03;;;-3.53;100.00
40384;BME280;26097;42.366;23.818;2023-02-13T04:24:35;95804.94;;;-3.69;100.00
40384;BME280;26097;42.366;23.818;2023-02-13T04:27:35;95803.06;;;-3.92;100.00
40384;BME280;26097;42.366;23.818;2023-02-13T04:30:36;95806.34;;;-4.05;100.00
40384;BME280;26097;42.366;23.818;2023-02-13T04:33:37;95806.25;;;-4.16;100.00
40384;BME280;26097;42.366;23.818;2023-02-13T04:36:37;95803.69;;;-4.14;100.00
40384;BME280;26097;42.366;23.818;2023-02-13T04:39:38;95799.28;;;-4.34;100.00
40384;BME280;26097;42.366;23.818;2023-02-13T04:42:38;95811.09;;;-4.42;100.00
40384;BME280;26097;42.366;23.818;2023-02-13T04:45:38;95799.97;;;-4.51;100.00
40384;BME280;26097;42.366;23.818;2023-02-13T04:48:39;95803.16;;;-4.70;100.00
40384;BME280;26097;42.366;23.818;2023-02-13T04:51:40;95800.53;;;-4.78;100.00
40384;BME280;26097;42.366;23.818;2023-02-13T04:54:40;95795.38;;;-4.83;100.00
40384;BME280;26097;42.366;23.818;2023-02-13T04:57:40;95790.22;;;-4.89;100.00
40384;BME280;26097;42.366;23.818;2023-02-13T05:00:41;95791.91;;;-4.91;100.00
40384;BME280;26097;42.366;23.818;2023-02-13T05:03:41;95791.91;;;-4.91;100.00
40384;BME280;26097;42.366;23.818;2023-02-13T05:06:42;95791.75;;;-5.04;100.00
40384;BME280;26097;42.366;23.818;2023-02-13T05:09:42;95783.25;;;-5.06;100.00
40384;BME280;26097;42.366;23.818;2023-02-13T05:12:42;95794.28;;;-5.04;100.00
40384;BME280;26097;42.366;23.818;2023-02-13T05:15:43;95786.06;;;-4.81;100.00
40384;BME280;26097;42.366;23.818;2023-02-13T05:18:43;95795.31;;;-4.89;100.00
40384;BME280;26097;42.366;23.818;2023-02-13T05:21:44;95795.59;;;-4.64;100.00
40384;BME280;26097;42.366;23.818;2023-02-13T05:25:03;95792.41;;;-4.45;100.00
40384;BME280;26097;42.366;23.818;2023-02-13T05:28:04;95801.06;;;-4.24;100.00
40384;BME280;26097;42.366;23.818;2023-02-13T05:31:04;95800.25;;;-4.21;100.00
40384;BME280;26097;42.366;23.818;2023-02-13T05:34:04;95796.13;;;-4.07;100.00
40384;BME280;26097;42.366;23.818;2023-02-13T05:37:05;95804.78;;;-3.91;100.00
40384;BME280;26097;42.366;23.818;2023-02-13T05:40:06;95804.78;;;-3.88;100.00
40384;BME280;26097;42.366;23.818;2023-02-13T05:43:06;95816.75;;;-3.74;100.00
40384;BME280;26097;42.366;23.818;2023-02-13T05:46:08;95813.47;;;-3.64;100.00
40384;BME280;26097;42.366;23.818;2023-02-13T05:49:11;95810.09;;;-3.60;100.00
40384;BME280;26097;42.366;23.818;2023-02-13T05:52:11;95817.81;;;-3.50;100.00
40384;BME280;26097;42.366;23.818;2023-02-13T05:55:12;95812.75;;;-3.42;100.00
40384;BME280;26097;42.366;23.818;2023-02-13T05:58:12;95817.91;;;-3.33;100.00
40384;BME280;26097;42.366;23.818;2023-02-13T06:01:13;95815.41;;;-3.25;100.00
40384;BME280;26097;42.366;23.818;2023-02-13T06:04:13;95823.94;;;-3.17;100.00
40384;BME280;26097;42.366;23.818;2023-02-13T06:07:13;95820.56;;;-3.11;100.00
40384;BME280;26097;42.366;23.818;2023-02-13T06:10:14;95818.03;;;-3.10;100.00
40384;BME280;26097;42.366;23.818;2023-02-13T06:13:15;95823.19;;;-3.02;100.00
40384;BME280;26097;42.366;23.818;2023-02-13T06:16:15;95828.34;;;-2.94;100.00
40384;BME280;26097;42.366;23.818;2023-02-13T06:19:16;95825.88;;;-2.73;100.00
40384;BME280;26097;42.366;23.818;2023-02-13T06:22:16;95831.00;;;-2.63;100.00
40384;BME280;26097;42.366;23.818;2023-02-13T06:25:17;95845.44;;;-2.67;100.00
40384;BME280;26097;42.366;23.818;2023-02-13T06:28:17;95834.41;;;-2.64;100.00
40384;BME280;26097;42.366;23.818;2023-02-13T06:31:18;95836.97;;;-2.58;100.00
40384;BME280;26097;42.366;23.818;2023-02-13T06:34:18;95847.22;;;-2.49;100.00
40384;BME280;26097;42.366;23.818;2023-02-13T06:37:19;95845.56;;;-2.42;100.00
40384;BME280;26097;42.366;23.818;2023-02-13T06:40:19;95840.47;;;-2.36;100.00
40384;BME280;26097;42.366;23.818;2023-02-13T06:43:19;95850.66;;;-2.44;100.00
40384;BME280;26097;42.366;23.818;2023-02-13T06:46:20;95841.28;;;-2.45;100.00
40384;BME280;26097;42.366;23.818;2023-02-13T06:49:20;95832.78;;;-2.37;100.00
40384;BME280;26097;42.366;23.818;2023-02-13T06:52:21;95838.78;;;-2.26;100.00
40384;BME280;26097;42.366;23.818;2023-02-13T06:55:21;95843.91;;;-2.12;100.00
40384;BME280;26097;42.366;23.818;2023-02-13T06:58:23;95834.53;;;-2.13;100.00
40384;BME280;26097;42.366;23.818;2023-02-13T07:01:24;95841.38;;;-2.13;100.00
40384;BME280;26097;42.366;23.818;2023-02-13T07:04:24;95846.44;;;-2.17;100.00
40384;BME280;26097;42.366;23.818;2023-02-13T07:07:25;95843.06;;;-2.09;100.00
40384;BME280;26097;42.366;23.818;2023-02-13T07:10:25;95837.97;;;-1.97;100.00
40384;BME280;26097;42.366;23.818;2023-02-13T07:13:25;95837.97;;;-1.92;100.00
40384;BME280;26097;42.366;23.818;2023-02-13T07:16:26;95838.84;;;-1.81;100.00
40384;BME280;26097;42.366;23.818;2023-02-13T07:19:26;95838.88;;;-1.73;100.00
40384;BME280;26097;42.366;23.818;2023-02-13T07:22:27;95842.25;;;-1.73;100.00
40384;BME280;26097;42.366;23.818;2023-02-13T07:25:27;95841.41;;;-1.64;100.00
40384;BME280;26097;42.366;23.818;2023-02-13T07:28:28;95842.25;;;-1.49;100.00
40384;BME280;26097;42.366;23.818;2023-02-13T07:31:28;95848.22;;;-1.41;100.00
40384;BME280;26097;42.366;23.818;2023-02-13T07:34:29;95843.09;;;-1.32;100.00
40384;BME280;26097;42.366;23.818;2023-02-13T07:37:30;95843.94;;;-1.22;100.00
40384;BME280;26097;42.366;23.818;2023-02-13T07:40:31;95841.38;;;-1.14;100.00
40384;BME280;26097;42.366;23.818;2023-02-13T07:43:31;95844.75;;;-1.03;100.00
40384;BME280;26097;42.366;23.818;2023-02-13T07:46:31;95843.91;;;-1.00;100.00
40384;BME280;26097;42.366;23.818;2023-02-13T07:49:32;95847.28;;;-0.99;100.00
40384;BME280;26097;42.366;23.818;2023-02-13T07:52:32;95846.44;;;-0.92;100.00
40384;BME280;26097;42.366;23.818;2023-02-13T07:55:33;95847.25;;;-0.79;100.00
40384;BME280;26097;42.366;23.818;2023-02-13T07:58:34;95854.06;;;-0.80;100.00
40384;BME280;26097;42.366;23.818;2023-02-13T08:01:35;95853.22;;;-0.73;100.00
40384;BME280;26097;42.366;23.818;2023-02-13T08:04:35;95846.38;;;-0.67;100.00
40384;BME280;26097;42.366;23.818;2023-02-13T08:07:36;95846.31;;;-0.61;100.00
40384;BME280;26097;42.366;23.818;2023-02-13T08:10:36;95848.03;;;-0.54;100.00
40384;BME280;26097;42.366;23.818;2023-02-13T08:13:55;95842.00;;;-0.45;100.00
40384;BME280;26097;42.366;23.818;2023-02-13T08:16:57;95847.03;;;-0.25;100.00
40384;BME280;26097;42.366;23.818;2023-02-13T08:19:58;95842.72;;;-0.20;100.00
40384;BME280;26097;42.366;23.818;2023-02-13T08:23:06;95827.34;;;-0.17;100.00
40384;BME280;26097;42.366;23.818;2023-02-13T08:26:07;95828.97;;;-0.06;100.00
40384;BME280;26097;42.366;23.818;2023-02-13T08:29:07;95838.28;;;0.10;100.00
40384;BME280;26097;42.366;23.818;2023-02-13T08:32:08;95839.00;;;0.28;100.00
40384;BME280;26097;42.366;23.818;2023-02-13T08:35:08;95835.44;;;0.48;100.00
40384;BME280;26097;42.366;23.818;2023-02-13T08:38:09;95841.44;;;0.47;100.00
40384;BME280;26097;42.366;23.818;2023-02-13T08:41:09;95834.56;;;0.52;100.00
40384;BME280;26097;42.366;23.818;2023-02-13T08:44:09;95825.03;;;0.66;100.00
40384;BME280;26097;42.366;23.818;2023-02-13T08:47:10;95823.22;;;0.75;100.00
40384;BME280;26097;42.366;23.818;2023-02-13T08:50:10;95828.31;;;0.81;100.00
40384;BME280;26097;42.366;23.818;2023-02-13T08:53:11;95826.63;;;0.77;100.00
40384;BME280;26097;42.366;23.818;2023-02-13T08:56:11;95825.00;;;0.69;100.00
40384;BME280;26097;42.366;23.818;2023-02-13T08:59:12;95826.56;;;0.84;100.00
40384;BME280;26097;42.366;23.818;2023-02-13T09:02:12;95824.63;;;1.08;100.00
40384;BME280;26097;42.366;23.818;2023-02-13T09:05:14;95815.94;;;1.19;100.00
40384;BME280;26097;42.366;23.818;2023-02-13T09:08:14;95814.16;;;1.25;100.00
40384;BME280;26097;42.366;23.818;2023-02-13T09:11:15;95811.50;;;1.32;100.00
40384;BME280;26097;42.366;23.818;2023-02-13T09:14:15;95818.91;;;1.56;100.00
40384;BME280;26097;42.366;23.818;2023-02-13T09:17:16;95800.00;;;1.62;100.00
40384;BME280;26097;42.366;23.818;2023-02-13T09:20:18;95810.25;;;1.62;100.00
40384;BME280;26097;42.366;23.818;2023-02-13T09:23:19;95810.16;;;1.70;100.00
40384;BME280;26097;42.366;23.818;2023-02-13T09:26:19;95791.91;;;1.89;100.00
40384;BME280;26097;42.366;23.818;2023-02-13T09:29:20;95804.56;;;2.04;100.00
40384;BME280;26097;42.366;23.818;2023-02-13T09:32:20;95794.22;;;2.07;100.00
40384;BME280;26097;42.366;23.818;2023-02-13T09:35:21;95791.25;;;2.32;100.00
40384;BME280;26097;42.366;23.818;2023-02-13T09:38:22;95803.31;;;2.30;100.00
40384;BME280;26097;42.366;23.818;2023-02-13T09:41:28;95789.63;;;2.28;100.00
40384;BME280;26097;42.366;23.818;2023-02-13T09:44:40;95783.53;;;2.34;100.00
40384;BME280;26097;42.366;23.818;2023-02-13T09:47:43;95786.97;;;2.33;100.00
40384;BME280;26097;42.366;23.818;2023-02-13T09:50:44;95786.94;;;2.34;100.00
40384;BME280;26097;42.366;23.818;2023-02-13T09:57:01;95775.94;;;2.76;100.00
40384;BME280;26097;42.366;23.818;2023-02-13T10:06:30;95760.06;;;2.99;100.00
40384;BME280;26097;42.366;23.818;2023-02-13T10:12:45;95756.53;;;3.04;100.00
40384;BME280;26097;42.366;23.818;2023-02-13T10:16:08;95756.25;;;3.18;100.00
40384;BME280;26097;42.366;23.818;2023-02-13T10:22:13;95748.81;;;3.46;100.00
40384;BME280;26097;42.366;23.818;2023-02-13T10:25:20;95728.00;;;3.55;100.00
40384;BME280;26097;42.366;23.818;2023-02-13T10:31:27;95723.28;;;3.75;100.00
40384;BME280;26097;42.366;23.818;2023-02-13T10:34:31;95721.44;;;3.80;100.00
40384;BME280;26097;42.366;23.818;2023-02-13T10:37:34;95724.25;;;3.69;100.00
40384;BME280;26097;42.366;23.818;2023-02-13T10:40:38;95716.53;;;3.69;100.00
40384;BME280;26097;42.366;23.818;2023-02-13T10:47:52;95707.66;;;3.81;100.00
40384;BME280;26097;42.366;23.818;2023-02-13T10:50:58;95695.81;;;4.10;100.00
40384;BME280;26097;42.366;23.818;2023-02-13T10:57:40;95685.75;;;4.32;100.00
40384;BME280;26097;42.366;23.818;2023-02-13T11:00:48;95675.72;;;4.21;100.00
40384;BME280;26097;42.366;23.818;2023-02-13T11:04:05;95669.47;;;4.30;100.00
40384;BME280;26097;42.366;23.818;2023-02-13T11:07:13;95678.28;;;4.23;100.00
40384;BME280;26097;42.366;23.818;2023-02-13T11:10:16;95673.03;;;4.26;100.00
40384;BME280;26097;42.366;23.818;2023-02-13T11:13:20;95670.28;;;4.32;100.00
40384;BME280;26097;42.366;23.818;2023-02-13T11:16:21;95669.41;;;4.33;100.00
40384;BME280;26097;42.366;23.818;2023-02-13T11:19:28;95658.06;;;4.39;100.00
40384;BME280;26097;42.366;23.818;2023-02-13T11:22:34;95657.16;;;4.40;78.59
40384;BME280;26097;42.366;23.818;2023-02-13T11:25:37;95651.66;;;4.54;73.40
40384;BME280;26097;42.366;23.818;2023-02-13T11:28:46;95645.63;;;4.85;71.32
40384;BME280;26097;42.366;23.818;2023-02-13T11:32:21;95639.44;;;4.91;71.60
40384;BME280;26097;42.366;23.818;2023-02-13T11:38:26;95634.19;;;4.94;72.76
40384;BME280;26097;42.366;23.818;2023-02-13T11:41:28;95636.84;;;5.21;72.22
40384;BME280;26097;42.366;23.818;2023-02-13T11:44:30;95634.97;;;4.97;70.47
40384;BME280;26097;42.366;23.818;2023-02-13T11:50:34;95624.25;;;5.10;68.58
40384;BME280;26097;42.366;23.818;2023-02-13T11:53:38;95620.69;;;5.14;69.20
40384;BME280;26097;42.366;23.818;2023-02-13T11:56:50;95616.47;;;5.10;68.57
40384;BME280;26097;42.366;23.818;2023-02-13T11:59:51;95604.84;;;4.96;69.59
40384;BME280;26097;42.366;23.818;2023-02-13T12:02:52;95603.84;;;5.00;68.74
40384;BME280;26097;42.366;23.818;2023-02-13T12:06:11;95593.72;;;4.94;69.01
40384;BME280;26097;42.366;23.818;2023-02-13T12:09:14;95593.06;;;5.16;68.34
40384;BME280;26097;42.366;23.818;2023-02-13T12:12:38;95592.88;;;5.22;67.71
40384;BME280;26097;42.366;23.818;2023-02-13T12:15:42;95586.31;;;5.12;68.95
40384;BME280;26097;42.366;23.818;2023-02-13T12:18:49;95573.78;;;5.26;68.20
40384;BME280;26097;42.366;23.818;2023-02-13T12:22:15;95562.28;;;5.08;67.19
40384;BME280;26097;42.366;23.818;2023-02-13T12:25:26;95570.34;;;5.26;66.26
40384;BME280;26097;42.366;23.818;2023-02-13T12:28:50;95574.00;;;5.19;63.91
40384;BME280;26097;42.366;23.818;2023-02-13T12:42:20;95568.59;;;5.26;60.10
40384;BME280;26097;42.366;23.818;2023-02-13T12:45:39;95566.91;;;5.25;60.22
40384;BME280;26097;42.366;23.818;2023-02-13T12:48:59;95561.47;;;5.62;59.51
40384;BME280;26097;42.366;23.818;2023-02-13T13:02:06;95567.47;;;5.35;57.06
40384;BME280;26097;42.366;23.818;2023-02-13T13:15:34;95552.50;;;5.45;56.82
40384;BME280;26097;42.366;23.818;2023-02-13T13:22:14;95547.75;;;5.60;55.03
40384;BME280;26097;42.366;23.818;2023-02-13T13:25:54;95541.44;;;5.67;54.96
40384;BME280;26097;42.366;23.818;2023-02-13T13:28:57;95541.44;;;5.67;55.35
40384;BME280;26097;42.366;23.818;2023-02-13T13:32:02;95544.94;;;5.66;53.79
40384;BME280;26097;42.366;23.818;2023-02-13T13:35:05;95543.25;;;5.38;55.80
40384;BME280;26097;42.366;23.818;2023-02-13T13:51:33;95533.03;;;5.35;55.35
40384;BME280;26097;42.366;23.818;2023-02-13T13:54:34;95539.38;;;5.24;55.99
40384;BME280;26097;42.366;23.818;2023-02-13T14:00:39;95522.56;;;5.38;56.80
40384;BME280;26097;42.366;23.818;2023-02-13T14:03:39;95530.34;;;5.38;55.96
40384;BME280;26097;42.366;23.818;2023-02-13T14:09:44;95535.44;;;5.12;57.35
40384;BME280;26097;42.366;23.818;2023-02-13T14:12:47;95535.72;;;5.32;57.06
40384;BME280;26097;42.366;23.818;2023-02-13T14:15:49;95529.50;;;5.09;57.83
40384;BME280;26097;42.366;23.818;2023-02-13T14:18:50;95533.09;;;5.05;56.61
40384;BME280;26097;42.366;23.818;2023-02-13T14:21:51;95531.19;;;5.10;56.74
40384;BME280;26097;42.366;23.818;2023-02-13T14:25:00;95518.94;;;5.17;57.17
40384;BME280;26097;42.366;23.818;2023-02-13T14:28:03;95525.66;;;5.22;57.37
40384;BME280;26097;42.366;23.818;2023-02-13T14:31:28;95519.66;;;5.22;58.07
40384;BME280;26097;42.366;23.818;2023-02-13T14:34:30;95524.41;;;5.07;58.01
40384;BME280;26097;42.366;23.818;2023-02-13T14:37:35;95521.06;;;5.04;57.74
40384;BME280;26097;42.366;23.818;2023-02-13T14:40:48;95510.91;;;4.97;58.25
40384;BME280;26097;42.366;23.818;2023-02-13T14:43:50;95518.81;;;4.93;58.95
40384;BME280;26097;42.366;23.818;2023-02-13T14:46:53;95511.28;;;4.85;59.23
40384;BME280;26097;42.366;23.818;2023-02-13T14:49:57;95506.22;;;4.82;59.99
40384;BME280;26097;42.366;23.818;2023-02-13T14:52:59;95510.59;;;4.80;59.87
40384;BME280;26097;42.366;23.818;2023-02-13T14:56:06;95509.94;;;4.71;60.32
40384;BME280;26097;42.366;23.818;2023-02-13T15:02:20;95512.28;;;4.51;61.40
40384;BME280;26097;42.366;23.818;2023-02-13T15:05:29;95516.22;;;4.34;62.10
40384;BME280;26097;42.366;23.818;2023-02-13T15:08:34;95513.16;;;4.20;62.91
40384;BME280;26097;42.366;23.818;2023-02-13T15:11:39;95515.09;;;4.11;63.00
40384;BME280;26097;42.366;23.818;2023-02-13T15:14:41;95512.00;;;4.00;63.90
40384;BME280;26097;42.366;23.818;2023-02-13T15:17:42;95503.69;;;3.89;64.21
40384;BME280;26097;42.366;23.818;2023-02-13T15:20:43;95506.66;;;3.73;64.48
40384;BME280;26097;42.366;23.818;2023-02-13T15:23:51;95507.00;;;3.61;64.80
40384;BME280;26097;42.366;23.818;2023-02-13T15:26:58;95508.03;;;3.53;65.21
40384;BME280;26097;42.366;23.818;2023-02-13T15:30:38;95509.44;;;3.31;65.95
40384;BME280;26097;42.366;23.818;2023-02-13T15:33:46;95508.91;;;3.18;66.37
40384;BME280;26097;42.366;23.818;2023-02-13T15:36:47;95509.34;;;2.99;66.85
40384;BME280;26097;42.366;23.818;2023-02-13T15:39:48;95519.22;;;2.80;67.16
40384;BME280;26097;42.366;23.818;2023-02-13T15:42:48;95512.66;;;2.65;67.47
40384;BME280;26097;42.366;23.818;2023-02-13T15:45:49;95513.91;;;2.47;67.89
40384;BME280;26097;42.366;23.818;2023-02-13T15:48:49;95516.00;;;2.29;68.23
40384;BME280;26097;42.366;23.818;2023-02-13T15:52:01;95517.88;;;2.21;68.58
40384;BME280;26097;42.366;23.818;2023-02-13T15:55:03;95531.84;;;2.07;68.55
40384;BME280;26097;42.366;23.818;2023-02-13T15:58:04;95524.06;;;2.12;67.85
40384;BME280;26097;42.366;23.818;2023-02-13T16:01:06;95519.19;;;1.98;67.72
40384;BME280;26097;42.366;23.818;2023-02-13T16:04:09;95525.44;;;1.83;68.09
40384;BME280;26097;42.366;23.818;2023-02-13T16:07:11;95523.75;;;1.82;68.05
40384;BME280;26097;42.366;23.818;2023-02-13T16:10:27;95527.41;;;1.70;68.50
40384;BME280;26097;42.366;23.818;2023-02-13T16:13:28;95532.16;;;1.43;69.62
40384;BME280;26097;42.366;23.818;2023-02-13T16:16:31;95527.63;;;1.58;69.43
40384;BME280;26097;42.366;23.818;2023-02-13T16:19:38;95525.16;;;1.51;70.18
40384;BME280;26097;42.366;23.818;2023-02-13T16:23:06;95534.50;;;1.55;70.42
40384;BME280;26097;42.366;23.818;2023-02-13T16:26:14;95521.56;;;1.60;70.57
40384;BME280;26097;42.366;23.818;2023-02-13T16:29:20;95526.59;;;1.66;70.38
40384;BME280;26097;42.366;23.818;2023-02-13T16:32:24;95538.06;;;1.48;71.40
40384;BME280;26097;42.366;23.818;2023-02-13T16:35:28;95533.59;;;1.58;70.91
40384;BME280;26097;42.366;23.818;2023-02-13T16:41:32;95531.03;;;1.60;71.65
40384;BME280;26097;42.366;23.818;2023-02-13T16:44:32;95524.28;;;1.52;72.31
40384;BME280;26097;42.366;23.818;2023-02-13T16:47:32;95535.28;;;1.61;72.94
40384;BME280;26097;42.366;23.818;2023-02-13T16:50:33;95530.03;;;1.65;72.99
40384;BME280;26097;42.366;23.818;2023-02-13T16:53:33;95528.34;;;1.66;72.95
40384;BME280;26097;42.366;23.818;2023-02-13T17:03:08;95529.34;;;1.55;73.53
40384;BME280;26097;42.366;23.818;2023-02-13T17:06:09;95528.84;;;1.36;74.82
40384;BME280;26097;42.366;23.818;2023-02-13T17:09:09;95528.31;;;1.14;75.92
40384;BME280;26097;42.366;23.818;2023-02-13T17:12:12;95523.22;;;0.53;78.66
40384;BME280;26097;42.366;23.818;2023-02-13T17:15:18;95519.88;;;0.46;81.48
40384;BME280;26097;42.366;23.818;2023-02-13T17:18:19;95522.59;;;0.35;81.39
40384;BME280;26097;42.366;23.818;2023-02-13T17:21:20;95519.88;;;0.48;84.60
40384;BME280;26097;42.366;23.818;2023-02-13T17:24:20;95515.34;;;0.65;84.16
40384;BME280;26097;42.366;23.818;2023-02-13T17:27:20;95506.63;;;0.76;83.17
40384;BME280;26097;42.366;23.818;2023-02-13T17:30:27;95514.88;;;0.98;83.95
40384;BME280;26097;42.366;23.818;2023-02-13T17:33:29;95518.00;;;1.17;83.30
40384;BME280;26097;42.366;23.818;2023-02-13T17:36:31;95508.41;;;1.27;82.73
40384;BME280;26097;42.366;23.818;2023-02-13T17:39:31;95516.13;;;1.27;82.24
40384;BME280;26097;42.366;23.818;2023-02-13T17:42:32;95510.91;;;1.32;82.22
40384;BME280;26097;42.366;23.818;2023-02-13T17:45:33;95505.66;;;1.39;82.39
40384;BME280;26097;42.366;23.818;2023-02-13T17:48:34;95510.78;;;1.41;81.86
40384;BME280;26097;42.366;23.818;2023-02-13T17:51:36;95505.59;;;1.44;81.46
40384;BME280;26097;42.366;23.818;2023-02-13T17:54:38;95503.06;;;1.41;81.16
40384;BME280;26097;42.366;23.818;2023-02-13T17:57:38;95507.34;;;1.42;81.25
40384;BME280;26097;42.366;23.818;2023-02-13T18:00:38;95496.13;;;1.46;80.80
40384;BME280;26097;42.366;23.818;2023-02-13T18:03:39;95508.09;;;1.46;81.12
40384;BME280;26097;42.366;23.818;2023-02-13T18:06:39;95502.25;;;1.37;81.53
40384;BME280;26097;42.366;23.818;2023-02-13T18:09:40;95509.78;;;1.47;81.76